sensor_id;sensor_type;location;lat;lon;timestamp;temperature;humidity
7216;DHT22;3649;48.798;9.798;2023-12-29T00:01:40;12.60;99.90
7216;DHT22;3649;48.798;9.798;2023-12-29T00:04:07;12.70;99.90
7216;DHT22;3649;48.798;9.798;2023-12-29T00:06:38;12.70;99.90
7216;DHT22;3649;48.798;9.798;2023-12-29T00:09:19;12.70;99.90
7216;DHT22;3649;48.798;9.798;2023-12-29T00:11:50;12.70;99.90
7216;DHT22;3649;48.798;9.798;2023-12-29T00:14:17;12.80;99.90
7216;DHT22;3649;48.798;9.798;2023-12-29T00:16:44;12.90;99.90
7216;DHT22;3649;48.798;9.798;2023-12-29T00:19:11;13.00;99.90
7216;DHT22;3649;48.798;9.798;2023-12-29T00:21:39;13.10;99.90
7216;DHT22;3649;48.798;9.798;2023-12-29T00:24:06;12.90;99.90
7216;DHT22;3649;48.798;9.798;2023-12-29T00:26:33;12.80;99.90
7216;DHT22;3649;48.798;9.798;2023-12-29T00:29:00;12.80;99.90
7216;DHT22;3649;48.798;9.798;2023-12-29T00:31:27;13.00;99.90
7216;DHT22;3649;48.798;9.798;2023-12-29T00:33:53;12.90;99.90
7216;DHT22;3649;48.798;9.798;2023-12-29T00:36:21;13.00;99.90
7216;DHT22;3649;48.798;9.798;2023-12-29T00:38:48;13.00;99.90
7216;DHT22;3649;48.798;9.798;2023-12-29T00:41:14;13.00;99.90
7216;DHT22;3649;48.798;9.798;2023-12-29T00:43:41;12.90;99.90
7216;DHT22;3649;48.798;9.798;2023-12-29T00:46:08;13.00;99.90
7216;DHT22;3649;48.798;9.798;2023-12-29T00:48:35;12.90;99.90
7216;DHT22;3649;48.798;9.798;2023-12-29T00:51:03;12.90;99.90
7216;DHT22;3649;48.798;9.798;2023-12-29T00:53:30;13.00;99.90
7216;DHT22;3649;48.798;9.798;2023-12-29T00:56:02;12.90;99.90
7216;DHT22;3649;48.798;9.798;2023-12-29T00:58:29;12.90;99.90
7216;DHT22;3649;48.798;9.798;2023-12-29T01:00:55;12.90;99.90
7216;DHT22;3649;48.798;9.798;2023-12-29T01:03:22;13.00;99.90
7216;DHT22;3649;48.798;9.798;2023-12-29T01:05:52;12.90;99.90
7216;DHT22;3649;48.798;9.798;2023-12-29T01:08:19;13.00;99.90
7216;DHT22;3649;48.798;9.798;2023-12-29T01:10:46;13.00;99.90
7216;DHT22;3649;48.798;9.798;2023-12-29T01:13:12;13.00;99.90
7216;DHT22;3649;48.798;9.798;2023-12-29T01:15:39;13.20;99.90
7216;DHT22;3649;48.798;9.798;2023-12-29T01:18:11;13.10;99.90
7216;DHT22;3649;48.798;9.798;2023-12-29T01:20:38;13.10;99.90
7216;DHT22;3649;48.798;9.798;2023-12-29T01:23:07;13.10;99.90
7216;DHT22;3649;48.798;9.798;2023-12-29T01:25:34;13.20;99.90
7216;DHT22;3649;48.798;9.798;2023-12-29T01:28:01;13.10;99.90
7216;DHT22;3649;48.798;9.798;2023-12-29T01:30:28;13.00;99.90
7216;DHT22;3649;48.798;9.798;2023-12-29T01:32:55;13.00;99.90
7216;DHT22;3649;48.798;9.798;2023-12-29T01:35:22;13.00;99.90
7216;DHT22;3649;48.798;9.798;2023-12-29T01:37:49;13.00;99.90
7216;DHT22;3649;48.798;9.798;2023-12-29T01:40:16;13.00;99.90
7216;DHT22;3649;48.798;9.798;2023-12-29T01:42:44;12.90;99.90
7216;DHT22;3649;48.798;9.798;2023-12-29T01:45:23;12.90;99.90
7216;DHT22;3649;48.798;9.798;2023-12-29T01:47:50;13.00;99.90
7216;DHT22;3649;48.798;9.798;2023-12-29T01:50:20;12.90;99.90
7216;DHT22;3649;48.798;9.798;2023-12-29T01:52:49;12.90;99.90
7216;DHT22;3649;48.798;9.798;2023-12-29T01:55:19;13.00;99.90
7216;DHT22;3649;48.798;9.798;2023-12-29T01:57:48;13.00;99.90
7216;DHT22;3649;48.798;9.798;2023-12-29T02:00:17;13.00;99.90
7216;DHT22;3649;48.798;9.798;2023-12-29T02:02:46;13.00;99.90
7216;DHT22;3649;48.798;9.798;2023-12-29T02:05:14;13.00;99.90
7216;DHT22;3649;48.798;9.798;2023-12-29T02:07:43;13.00;99.90
7216;DHT22;3649;48.798;9.798;2023-12-29T02:10:10;13.00;99.90
7216;DHT22;3649;48.798;9.798;2023-12-29T02:12:41;13.00;99.90
7216;DHT22;3649;48.798;9.798;2023-12-29T02:15:09;13.00;99.90
7216;DHT22;3649;48.798;9.798;2023-12-29T02:17:48;13.10;99.90
7216;DHT22;3649;48.798;9.798;2023-12-29T02:20:18;13.00;99.90
7216;DHT22;3649;48.798;9.798;2023-12-29T02:22:45;13.00;99.90
7216;DHT22;3649;48.798;9.798;2023-12-29T02:25:12;13.00;99.90
7216;DHT22;3649;48.798;9.798;2023-12-29T02:27:57;13.00;99.90
7216;DHT22;3649;48.798;9.798;2023-12-29T02:30:33;13.00;99.90
7216;DHT22;3649;48.798;9.798;2023-12-29T02:33:10;13.00;99.90
7216;DHT22;3649;48.798;9.798;2023-12-29T02:35:43;13.00;99.90
7216;DHT22;3649;48.798;9.798;2023-12-29T02:38:11;13.00;99.90
7216;DHT22;3649;48.798;9.798;2023-12-29T02:40:38;12.90;99.90
7216;DHT22;3649;48.798;9.798;2023-12-29T02:43:05;13.00;99.90
7216;DHT22;3649;48.798;9.798;2023-12-29T02:45:32;13.00;99.90
7216;DHT22;3649;48.798;9.798;2023-12-29T02:47:58;13.00;99.90
7216;DHT22;3649;48.798;9.798;2023-12-29T02:50:26;12.80;99.90
7216;DHT22;3649;48.798;9.798;2023-12-29T02:52:53;13.00;99.90
7216;DHT22;3649;48.798;9.798;2023-12-29T02:55:20;12.90;99.90
7216;DHT22;3649;48.798;9.798;2023-12-29T02:57:48;12.90;99.90
7216;DHT22;3649;48.798;9.798;2023-12-29T03:00:15;13.00;99.90
7216;DHT22;3649;48.798;9.798;2023-12-29T03:02:42;12.90;99.90
7216;DHT22;3649;48.798;9.798;2023-12-29T03:05:09;13.00;99.90
7216;DHT22;3649;48.798;9.798;2023-12-29T03:07:36;12.90;99.90
7216;DHT22;3649;48.798;9.798;2023-12-29T03:10:03;12.90;99.90
7216;DHT22;3649;48.798;9.798;2023-12-29T03:12:30;12.90;99.90
7216;DHT22;3649;48.798;9.798;2023-12-29T03:14:57;12.90;99.90
7216;DHT22;3649;48.798;9.798;2023-12-29T03:17:24;12.90;99.90
7216;DHT22;3649;48.798;9.798;2023-12-29T03:19:52;13.00;99.90
7216;DHT22;3649;48.798;9.798;2023-12-29T03:22:19;12.90;99.90
7216;DHT22;3649;48.798;9.798;2023-12-29T03:24:48;12.90;99.90
7216;DHT22;3649;48.798;9.798;2023-12-29T03:27:15;12.90;99.90
7216;DHT22;3649;48.798;9.798;2023-12-29T03:29:42;12.90;99.90
7216;DHT22;3649;48.798;9.798;2023-12-29T03:32:09;13.00;99.90
7216;DHT22;3649;48.798;9.798;2023-12-29T03:34:36;12.90;99.90
7216;DHT22;3649;48.798;9.798;2023-12-29T03:37:03;12.90;99.90
7216;DHT22;3649;48.798;9.798;2023-12-29T03:39:30;12.90;99.90
7216;DHT22;3649;48.798;9.798;2023-12-29T03:41:57;12.90;99.90
7216;DHT22;3649;48.798;9.798;2023-12-29T03:44:23;13.00;99.90
7216;DHT22;3649;48.798;9.798;2023-12-29T03:46:50;12.80;99.90
7216;DHT22;3649;48.798;9.798;2023-12-29T03:49:18;12.90;99.90
7216;DHT22;3649;48.798;9.798;2023-12-29T03:51:46;12.90;99.90
7216;DHT22;3649;48.798;9.798;2023-12-29T03:54:13;12.90;99.90
7216;DHT22;3649;48.798;9.798;2023-12-29T03:56:40;12.90;99.90
7216;DHT22;3649;48.798;9.798;2023-12-29T03:59:07;12.80;99.90
7216;DHT22;3649;48.798;9.798;2023-12-29T04:01:34;12.80;99.90
7216;DHT22;3649;48.798;9.798;2023-12-29T04:04:01;12.80;99.90
7216;DHT22;3649;48.798;9.798;2023-12-29T04:06:29;12.70;99.90
7216;DHT22;3649;48.798;9.798;2023-12-29T04:08:56;12.90;99.90
7216;DHT22;3649;48.798;9.798;2023-12-29T04:11:23;12.90;99.90
7216;DHT22;3649;48.798;9.798;2023-12-29T04:13:50;12.90;99.90
7216;DHT22;3649;48.798;9.798;2023-12-29T04:16:16;12.90;99.90
7216;DHT22;3649;48.798;9.798;2023-12-29T04:18:44;13.00;99.90
7216;DHT22;3649;48.798;9.798;2023-12-29T04:21:15;13.00;99.90
7216;DHT22;3649;48.798;9.798;2023-12-29T04:23:42;12.90;99.90
7216;DHT22;3649;48.798;9.798;2023-12-29T04:26:09;12.90;99.90
7216;DHT22;3649;48.798;9.798;2023-12-29T04:28:36;12.90;99.90
7216;DHT22;3649;48.798;9.798;2023-12-29T04:31:03;13.00;99.90
7216;DHT22;3649;48.798;9.798;2023-12-29T04:33:30;12.90;99.90
7216;DHT22;3649;48.798;9.798;2023-12-29T04:35:57;12.90;99.90
7216;DHT22;3649;48.798;9.798;2023-12-29T04:38:24;12.90;99.90
7216;DHT22;3649;48.798;9.798;2023-12-29T04:40:51;13.00;99.90
7216;DHT22;3649;48.798;9.798;2023-12-29T04:43:18;12.90;99.90
7216;DHT22;3649;48.798;9.798;2023-12-29T04:45:44;13.00;99.90
7216;DHT22;3649;48.798;9.798;2023-12-29T04:48:12;13.00;99.90
7216;DHT22;3649;48.798;9.798;2023-12-29T04:50:39;12.90;99.90
7216;DHT22;3649;48.798;9.798;2023-12-29T04:53:06;13.00;99.90
7216;DHT22;3649;48.798;9.798;2023-12-29T04:55:32;13.10;99.90
7216;DHT22;3649;48.798;9.798;2023-12-29T04:57:59;13.00;99.90
7216;DHT22;3649;48.798;9.798;2023-12-29T05:00:26;12.90;99.90
7216;DHT22;3649;48.798;9.798;2023-12-29T05:02:53;12.90;99.90
7216;DHT22;3649;48.798;9.798;2023-12-29T05:05:20;13.00;99.90
7216;DHT22;3649;48.798;9.798;2023-12-29T05:07:47;13.00;99.90
7216;DHT22;3649;48.798;9.798;2023-12-29T05:10:14;13.00;99.90
7216;DHT22;3649;48.798;9.798;2023-12-29T05:12:41;13.00;99.90
7216;DHT22;3649;48.798;9.798;2023-12-29T05:15:08;13.00;99.90
7216;DHT22;3649;48.798;9.798;2023-12-29T05:17:35;13.00;99.90
7216;DHT22;3649;48.798;9.798;2023-12-29T05:20:02;12.90;99.90
7216;DHT22;3649;48.798;9.798;2023-12-29T05:22:29;13.00;99.90
7216;DHT22;3649;48.798;9.798;2023-12-29T05:24:56;12.90;99.90
7216;DHT22;3649;48.798;9.798;2023-12-29T05:27:27;12.90;99.90
7216;DHT22;3649;48.798;9.798;2023-12-29T05:29:54;13.00;99.90
7216;DHT22;3649;48.798;9.798;2023-12-29T05:32:20;12.90;99.90
7216;DHT22;3649;48.798;9.798;2023-12-29T05:34:47;13.00;99.90
7216;DHT22;3649;48.798;9.798;2023-12-29T05:37:14;12.90;99.90
7216;DHT22;3649;48.798;9.798;2023-12-29T05:39:42;13.00;99.90
7216;DHT22;3649;48.798;9.798;2023-12-29T05:42:09;12.90;99.90
7216;DHT22;3649;48.798;9.798;2023-12-29T05:44:36;13.00;99.90
7216;DHT22;3649;48.798;9.798;2023-12-29T05:47:07;13.00;99.90
7216;DHT22;3649;48.798;9.798;2023-12-29T05:49:34;12.80;99.90
7216;DHT22;3649;48.798;9.798;2023-12-29T05:52:06;12.90;99.90
7216;DHT22;3649;48.798;9.798;2023-12-29T05:54:34;13.00;99.90
7216;DHT22;3649;48.798;9.798;2023-12-29T05:57:01;13.00;99.90
7216;DHT22;3649;48.798;9.798;2023-12-29T05:59:28;12.90;99.90
7216;DHT22;3649;48.798;9.798;2023-12-29T06:01:55;12.90;99.90
7216;DHT22;3649;48.798;9.798;2023-12-29T06:04:23;12.90;99.90
7216;DHT22;3649;48.798;9.798;2023-12-29T06:06:50;12.90;99.90
7216;DHT22;3649;48.798;9.798;2023-12-29T06:09:17;13.00;99.90
7216;DHT22;3649;48.798;9.798;2023-12-29T06:11:44;13.00;99.90
7216;DHT22;3649;48.798;9.798;2023-12-29T06:14:11;13.00;99.90
7216;DHT22;3649;48.798;9.798;2023-12-29T06:16:38;13.10;99.90
7216;DHT22;3649;48.798;9.798;2023-12-29T06:19:05;13.00;99.90
7216;DHT22;3649;48.798;9.798;2023-12-29T06:21:32;12.90;99.90
7216;DHT22;3649;48.798;9.798;2023-12-29T06:23:59;13.00;99.90
7216;DHT22;3649;48.798;9.798;2023-12-29T06:26:26;13.00;99.90
7216;DHT22;3649;48.798;9.798;2023-12-29T06:28:53;13.00;99.90
7216;DHT22;3649;48.798;9.798;2023-12-29T06:31:20;13.00;99.90
7216;DHT22;3649;48.798;9.798;2023-12-29T06:33:47;13.00;99.90
7216;DHT22;3649;48.798;9.798;2023-12-29T06:36:14;13.00;99.90
7216;DHT22;3649;48.798;9.798;2023-12-29T06:38:41;13.00;99.90
7216;DHT22;3649;48.798;9.798;2023-12-29T06:41:09;13.00;99.90
7216;DHT22;3649;48.798;9.798;2023-12-29T06:43:36;12.90;99.90
7216;DHT22;3649;48.798;9.798;2023-12-29T06:46:03;13.00;99.90
7216;DHT22;3649;48.798;9.798;2023-12-29T06:48:31;13.00;99.90
7216;DHT22;3649;48.798;9.798;2023-12-29T06:50:58;13.10;99.90
7216;DHT22;3649;48.798;9.798;2023-12-29T06:53:25;13.00;99.90
7216;DHT22;3649;48.798;9.798;2023-12-29T06:55:52;13.00;99.90
7216;DHT22;3649;48.798;9.798;2023-12-29T06:58:19;13.00;99.90
7216;DHT22;3649;48.798;9.798;2023-12-29T07:00:46;12.90;99.90
7216;DHT22;3649;48.798;9.798;2023-12-29T07:03:13;12.90;99.90
7216;DHT22;3649;48.798;9.798;2023-12-29T07:05:41;12.90;99.90
7216;DHT22;3649;48.798;9.798;2023-12-29T07:08:08;12.90;99.90
7216;DHT22;3649;48.798;9.798;2023-12-29T07:10:35;12.80;99.90
7216;DHT22;3649;48.798;9.798;2023-12-29T07:13:02;12.90;99.90
7216;DHT22;3649;48.798;9.798;2023-12-29T07:15:29;12.90;99.90
7216;DHT22;3649;48.798;9.798;2023-12-29T07:17:55;12.80;99.90
7216;DHT22;3649;48.798;9.798;2023-12-29T07:20:23;12.90;99.90
7216;DHT22;3649;48.798;9.798;2023-12-29T07:22:49;12.90;99.90
7216;DHT22;3649;48.798;9.798;2023-12-29T07:25:16;12.80;99.90
7216;DHT22;3649;48.798;9.798;2023-12-29T07:27:43;12.90;99.90
7216;DHT22;3649;48.798;9.798;2023-12-29T07:30:10;12.80;99.90
7216;DHT22;3649;48.798;9.798;2023-12-29T07:32:38;12.90;99.90
7216;DHT22;3649;48.798;9.798;2023-12-29T07:35:05;12.90;99.90
7216;DHT22;3649;48.798;9.798;2023-12-29T07:37:32;12.90;99.90
7216;DHT22;3649;48.798;9.798;2023-12-29T07:39:59;12.90;99.90
7216;DHT22;3649;48.798;9.798;2023-12-29T07:42:26;13.00;99.90
7216;DHT22;3649;48.798;9.798;2023-12-29T07:44:53;12.90;99.90
7216;DHT22;3649;48.798;9.798;2023-12-29T07:47:21;12.90;99.90
7216;DHT22;3649;48.798;9.798;2023-12-29T07:49:48;13.00;99.90
7216;DHT22;3649;48.798;9.798;2023-12-29T07:52:16;13.00;99.90
7216;DHT22;3649;48.798;9.798;2023-12-29T07:54:42;13.00;99.90
7216;DHT22;3649;48.798;9.798;2023-12-29T07:57:09;13.10;99.90
7216;DHT22;3649;48.798;9.798;2023-12-29T07:59:36;13.00;99.90
7216;DHT22;3649;48.798;9.798;2023-12-29T08:02:03;13.10;99.90
7216;DHT22;3649;48.798;9.798;2023-12-29T08:04:30;13.10;99.90
7216;DHT22;3649;48.798;9.798;2023-12-29T08:06:57;13.10;99.90
7216;DHT22;3649;48.798;9.798;2023-12-29T08:09:25;13.20;99.90
7216;DHT22;3649;48.798;9.798;2023-12-29T08:11:52;13.00;99.90
7216;DHT22;3649;48.798;9.798;2023-12-29T08:14:19;13.10;99.90
7216;DHT22;3649;48.798;9.798;2023-12-29T08:16:45;13.20;99.90
7216;DHT22;3649;48.798;9.798;2023-12-29T08:19:13;13.10;99.90
7216;DHT22;3649;48.798;9.798;2023-12-29T08:21:42;13.10;99.90
7216;DHT22;3649;48.798;9.798;2023-12-29T08:24:09;13.20;99.90
7216;DHT22;3649;48.798;9.798;2023-12-29T08:26:44;13.20;99.90
7216;DHT22;3649;48.798;9.798;2023-12-29T08:29:15;13.20;99.90
7216;DHT22;3649;48.798;9.798;2023-12-29T08:31:42;13.20;99.90
7216;DHT22;3649;48.798;9.798;2023-12-29T08:34:11;13.20;99.90
7216;DHT22;3649;48.798;9.798;2023-12-29T08:36:39;13.20;99.90
7216;DHT22;3649;48.798;9.798;2023-12-29T08:39:06;13.30;99.90
7216;DHT22;3649;48.798;9.798;2023-12-29T08:41:32;13.40;99.90
7216;DHT22;3649;48.798;9.798;2023-12-29T08:43:59;13.30;99.90
7216;DHT22;3649;48.798;9.798;2023-12-29T08:46:26;13.30;99.90
7216;DHT22;3649;48.798;9.798;2023-12-29T08:48:53;13.30;99.90
7216;DHT22;3649;48.798;9.798;2023-12-29T08:51:20;13.30;99.90
7216;DHT22;3649;48.798;9.798;2023-12-29T08:53:47;13.30;99.90
7216;DHT22;3649;48.798;9.798;2023-12-29T08:56:14;13.30;99.90
7216;DHT22;3649;48.798;9.798;2023-12-29T08:58:41;13.40;99.90
7216;DHT22;3649;48.798;9.798;2023-12-29T09:01:08;13.30;99.90
7216;DHT22;3649;48.798;9.798;2023-12-29T09:03:35;13.40;99.90
7216;DHT22;3649;48.798;9.798;2023-12-29T09:06:02;13.40;99.90
7216;DHT22;3649;48.798;9.798;2023-12-29T09:08:30;13.40;99.90
7216;DHT22;3649;48.798;9.798;2023-12-29T09:10:57;13.40;99.90
7216;DHT22;3649;48.798;9.798;2023-12-29T09:13:24;13.50;99.90
7216;DHT22;3649;48.798;9.798;2023-12-29T09:15:56;13.40;99.90
7216;DHT22;3649;48.798;9.798;2023-12-29T09:18:24;13.50;99.90
7216;DHT22;3649;48.798;9.798;2023-12-29T09:20:51;13.40;99.90
7216;DHT22;3649;48.798;9.798;2023-12-29T09:23:18;13.50;99.90
7216;DHT22;3649;48.798;9.798;2023-12-29T09:25:45;13.50;99.90
7216;DHT22;3649;48.798;9.798;2023-12-29T09:28:12;13.50;99.90
7216;DHT22;3649;48.798;9.798;2023-12-29T09:30:39;13.50;99.90
7216;DHT22;3649;48.798;9.798;2023-12-29T09:33:06;13.50;99.90
7216;DHT22;3649;48.798;9.798;2023-12-29T09:35:33;13.50;99.90
7216;DHT22;3649;48.798;9.798;2023-12-29T09:38:03;13.50;99.90
7216;DHT22;3649;48.798;9.798;2023-12-29T09:40:31;13.60;99.90
7216;DHT22;3649;48.798;9.798;2023-12-29T09:43:03;13.50;99.90
7216;DHT22;3649;48.798;9.798;2023-12-29T09:45:33;13.50;99.90
7216;DHT22;3649;48.798;9.798;2023-12-29T09:48:01;13.50;99.90
7216;DHT22;3649;48.798;9.798;2023-12-29T09:50:30;13.50;99.90
7216;DHT22;3649;48.798;9.798;2023-12-29T09:53:00;13.60;99.90
7216;DHT22;3649;48.798;9.798;2023-12-29T09:55:28;13.60;99.90
7216;DHT22;3649;48.798;9.798;2023-12-29T09:57:58;13.60;99.90
7216;DHT22;3649;48.798;9.798;2023-12-29T10:00:26;13.60;99.90
7216;DHT22;3649;48.798;9.798;2023-12-29T10:02:54;13.60;99.90
7216;DHT22;3649;48.798;9.798;2023-12-29T10:05:21;13.60;99.90
7216;DHT22;3649;48.798;9.798;2023-12-29T10:07:49;13.50;99.90
7216;DHT22;3649;48.798;9.798;2023-12-29T10:10:16;13.60;99.90
7216;DHT22;3649;48.798;9.798;2023-12-29T10:12:47;13.60;99.90
7216;DHT22;3649;48.798;9.798;2023-12-29T10:15:20;13.60;99.90
7216;DHT22;3649;48.798;9.798;2023-12-29T10:18:11;13.60;99.90
7216;DHT22;3649;48.798;9.798;2023-12-29T10:21:08;13.60;99.90
7216;DHT22;3649;48.798;9.798;2023-12-29T10:23:40;13.70;99.90
7216;DHT22;3649;48.798;9.798;2023-12-29T10:26:11;13.70;99.90
7216;DHT22;3649;48.798;9.798;2023-12-29T10:28:38;13.70;99.90
7216;DHT22;3649;48.798;9.798;2023-12-29T10:31:05;13.70;99.90
7216;DHT22;3649;48.798;9.798;2023-12-29T10:33:32;13.70;99.90
7216;DHT22;3649;48.798;9.798;2023-12-29T10:36:02;13.80;99.90
7216;DHT22;3649;48.798;9.798;2023-12-29T10:38:30;13.80;99.90
7216;DHT22;3649;48.798;9.798;2023-12-29T10:41:14;13.80;99.90
7216;DHT22;3649;48.798;9.798;2023-12-29T10:43:43;13.80;99.90
7216;DHT22;3649;48.798;9.798;2023-12-29T10:46:11;13.80;99.90
7216;DHT22;3649;48.798;9.798;2023-12-29T10:48:39;13.80;99.90
7216;DHT22;3649;48.798;9.798;2023-12-29T10:51:06;13.80;99.90
7216;DHT22;3649;48.798;9.798;2023-12-29T10:53:34;13.80;99.90
7216;DHT22;3649;48.798;9.798;2023-12-29T10:56:19;13.90;99.90
7216;DHT22;3649;48.798;9.798;2023-12-29T10:58:57;13.90;99.90
7216;DHT22;3649;48.798;9.798;2023-12-29T11:01:26;13.90;99.90
7216;DHT22;3649;48.798;9.798;2023-12-29T11:04:04;13.90;99.90
7216;DHT22;3649;48.798;9.798;2023-12-29T11:06:45;13.90;99.90
7216;DHT22;3649;48.798;9.798;2023-12-29T11:09:27;13.90;99.90
7216;DHT22;3649;48.798;9.798;2023-12-29T11:12:00;14.00;99.90
7216;DHT22;3649;48.798;9.798;2023-12-29T11:14:27;14.00;99.90
7216;DHT22;3649;48.798;9.798;2023-12-29T11:16:59;14.00;99.90
7216;DHT22;3649;48.798;9.798;2023-12-29T11:19:27;14.00;99.90
7216;DHT22;3649;48.798;9.798;2023-12-29T11:21:56;14.10;99.90
7216;DHT22;3649;48.798;9.798;2023-12-29T11:24:24;14.20;99.90
7216;DHT22;3649;48.798;9.798;2023-12-29T11:27:06;14.20;99.90
7216;DHT22;3649;48.798;9.798;2023-12-29T11:29:34;14.20;99.90
7216;DHT22;3649;48.798;9.798;2023-12-29T11:32:03;14.30;99.90
7216;DHT22;3649;48.798;9.798;2023-12-29T11:34:42;14.30;99.90
7216;DHT22;3649;48.798;9.798;2023-12-29T11:37:18;14.30;99.90
7216;DHT22;3649;48.798;9.798;2023-12-29T11:40:21;14.40;99.90
7216;DHT22;3649;48.798;9.798;2023-12-29T11:42:54;14.30;99.90
7216;DHT22;3649;48.798;9.798;2023-12-29T11:45:28;14.30;99.90
7216;DHT22;3649;48.798;9.798;2023-12-29T11:47:55;14.30;99.90
7216;DHT22;3649;48.798;9.798;2023-12-29T11:53:01;14.20;99.90
7216;DHT22;3649;48.798;9.798;2023-12-29T11:55:30;14.20;99.90
7216;DHT22;3649;48.798;9.798;2023-12-29T11:57:58;14.20;99.90
7216;DHT22;3649;48.798;9.798;2023-12-29T12:00:41;14.30;99.90
7216;DHT22;3649;48.798;9.798;2023-12-29T12:03:19;14.30;99.90
7216;DHT22;3649;48.798;9.798;2023-12-29T12:05:50;14.40;99.90
7216;DHT22;3649;48.798;9.798;2023-12-29T12:08:34;14.30;99.90
7216;DHT22;3649;48.798;9.798;2023-12-29T12:13:58;14.30;99.90
7216;DHT22;3649;48.798;9.798;2023-12-29T12:19:12;14.30;99.90
7216;DHT22;3649;48.798;9.798;2023-12-29T12:21:40;14.30;99.90
7216;DHT22;3649;48.798;9.798;2023-12-29T12:24:08;14.30;99.90
7216;DHT22;3649;48.798;9.798;2023-12-29T12:26:35;14.20;99.90
7216;DHT22;3649;48.798;9.798;2023-12-29T12:29:03;14.30;99.90
7216;DHT22;3649;48.798;9.798;2023-12-29T12:31:31;14.40;99.90
7216;DHT22;3649;48.798;9.798;2023-12-29T12:33:58;14.30;99.90
7216;DHT22;3649;48.798;9.798;2023-12-29T12:36:28;14.40;99.90
7216;DHT22;3649;48.798;9.798;2023-12-29T12:38:57;14.30;99.90
7216;DHT22;3649;48.798;9.798;2023-12-29T12:41:25;14.40;99.90
7216;DHT22;3649;48.798;9.798;2023-12-29T12:44:12;14.40;99.90
7216;DHT22;3649;48.798;9.798;2023-12-29T12:46:56;14.40;99.90
7216;DHT22;3649;48.798;9.798;2023-12-29T12:49:24;14.30;99.90
7216;DHT22;3649;48.798;9.798;2023-12-29T12:51:53;14.40;99.90
7216;DHT22;3649;48.798;9.798;2023-12-29T12:54:21;14.40;99.90
7216;DHT22;3649;48.798;9.798;2023-12-29T12:56:48;14.40;99.90
7216;DHT22;3649;48.798;9.798;2023-12-29T12:59:15;14.40;99.90
7216;DHT22;3649;48.798;9.798;2023-12-29T13:01:46;14.50;99.90
7216;DHT22;3649;48.798;9.798;2023-12-29T13:04:15;14.40;99.90
7216;DHT22;3649;48.798;9.798;2023-12-29T13:06:43;14.50;99.90
7216;DHT22;3649;48.798;9.798;2023-12-29T13:09:14;14.40;99.90
7216;DHT22;3649;48.798;9.798;2023-12-29T13:11:45;14.50;99.90
7216;DHT22;3649;48.798;9.798;2023-12-29T13:14:20;14.50;99.90
7216;DHT22;3649;48.798;9.798;2023-12-29T13:16:48;14.60;99.90
7216;DHT22;3649;48.798;9.798;2023-12-29T13:19:24;14.50;99.90
7216;DHT22;3649;48.798;9.798;2023-12-29T13:21:54;14.50;99.90
7216;DHT22;3649;48.798;9.798;2023-12-29T13:24:23;14.50;99.90
7216;DHT22;3649;48.798;9.798;2023-12-29T13:26:55;15.20;99.90
7216;DHT22;3649;48.798;9.798;2023-12-29T13:29:24;14.60;99.90
7216;DHT22;3649;48.798;9.798;2023-12-29T13:31:53;14.50;99.90
7216;DHT22;3649;48.798;9.798;2023-12-29T13:34:30;14.50;99.90
7216;DHT22;3649;48.798;9.798;2023-12-29T13:37:41;14.60;99.90
7216;DHT22;3649;48.798;9.798;2023-12-29T13:40:00;14.50;99.90
7216;DHT22;3649;48.798;9.798;2023-12-29T13:42:30;14.60;99.90
7216;DHT22;3649;48.798;9.798;2023-12-29T13:45:00;14.50;99.90
7216;DHT22;3649;48.798;9.798;2023-12-29T13:47:28;14.50;99.90
7216;DHT22;3649;48.798;9.798;2023-12-29T13:49:55;14.70;99.90
7216;DHT22;3649;48.798;9.798;2023-12-29T13:52:22;13.10;99.90
7216;DHT22;3649;48.798;9.798;2023-12-29T13:54:50;14.50;99.90
7216;DHT22;3649;48.798;9.798;2023-12-29T13:57:17;14.60;99.90
7216;DHT22;3649;48.798;9.798;2023-12-29T13:59:44;14.50;99.90
7216;DHT22;3649;48.798;9.798;2023-12-29T14:02:27;14.50;99.90
7216;DHT22;3649;48.798;9.798;2023-12-29T14:05:20;14.50;99.90
7216;DHT22;3649;48.798;9.798;2023-12-29T14:07:54;14.60;99.90
7216;DHT22;3649;48.798;9.798;2023-12-29T14:10:21;14.50;99.90
7216;DHT22;3649;48.798;9.798;2023-12-29T14:12:49;14.50;99.90
7216;DHT22;3649;48.798;9.798;2023-12-29T14:15:16;14.40;99.90
7216;DHT22;3649;48.798;9.798;2023-12-29T14:17:43;14.50;99.90
7216;DHT22;3649;48.798;9.798;2023-12-29T14:20:10;14.50;99.90
7216;DHT22;3649;48.798;9.798;2023-12-29T14:22:37;14.50;99.90
7216;DHT22;3649;48.798;9.798;2023-12-29T14:25:07;14.50;99.90
7216;DHT22;3649;48.798;9.798;2023-12-29T14:27:35;14.40;99.90
7216;DHT22;3649;48.798;9.798;2023-12-29T14:30:02;14.50;99.90
7216;DHT22;3649;48.798;9.798;2023-12-29T14:32:29;14.40;99.90
7216;DHT22;3649;48.798;9.798;2023-12-29T14:34:57;14.40;99.90
7216;DHT22;3649;48.798;9.798;2023-12-29T14:37:24;14.40;99.90
7216;DHT22;3649;48.798;9.798;2023-12-29T14:39:52;14.40;99.90
7216;DHT22;3649;48.798;9.798;2023-12-29T14:42:19;14.40;99.90
7216;DHT22;3649;48.798;9.798;2023-12-29T14:44:47;14.40;99.90
7216;DHT22;3649;48.798;9.798;2023-12-29T14:47:15;14.40;99.90
7216;DHT22;3649;48.798;9.798;2023-12-29T14:49:43;14.40;99.90
7216;DHT22;3649;48.798;9.798;2023-12-29T14:52:10;14.30;99.90
7216;DHT22;3649;48.798;9.798;2023-12-29T14:54:38;14.40;99.90
7216;DHT22;3649;48.798;9.798;2023-12-29T14:57:06;14.40;99.90
7216;DHT22;3649;48.798;9.798;2023-12-29T14:59:41;14.40;99.90
7216;DHT22;3649;48.798;9.798;2023-12-29T15:02:08;14.40;99.90
7216;DHT22;3649;48.798;9.798;2023-12-29T15:04:35;14.40;99.90
7216;DHT22;3649;48.798;9.798;2023-12-29T15:07:03;14.40;99.90
7216;DHT22;3649;48.798;9.798;2023-12-29T15:09:30;14.30;99.90
7216;DHT22;3649;48.798;9.798;2023-12-29T15:11:57;14.30;99.90
7216;DHT22;3649;48.798;9.798;2023-12-29T15:14:24;14.30;99.90
7216;DHT22;3649;48.798;9.798;2023-12-29T15:16:51;14.30;99.90
7216;DHT22;3649;48.798;9.798;2023-12-29T15:19:17;14.30;99.90
7216;DHT22;3649;48.798;9.798;2023-12-29T15:21:45;14.30;99.90
7216;DHT22;3649;48.798;9.798;2023-12-29T15:24:12;14.20;99.90
7216;DHT22;3649;48.798;9.798;2023-12-29T15:26:39;14.30;99.90
7216;DHT22;3649;48.798;9.798;2023-12-29T15:29:06;14.20;99.90
7216;DHT22;3649;48.798;9.798;2023-12-29T15:31:33;14.20;99.90
7216;DHT22;3649;48.798;9.798;2023-12-29T15:34:00;14.20;99.90
7216;DHT22;3649;48.798;9.798;2023-12-29T15:36:27;14.20;99.90
7216;DHT22;3649;48.798;9.798;2023-12-29T15:38:54;14.10;99.90
7216;DHT22;3649;48.798;9.798;2023-12-29T15:41:21;14.10;99.90
7216;DHT22;3649;48.798;9.798;2023-12-29T15:43:47;14.10;99.90
7216;DHT22;3649;48.798;9.798;2023-12-29T15:46:17;14.00;99.90
7216;DHT22;3649;48.798;9.798;2023-12-29T15:48:44;14.10;99.90
7216;DHT22;3649;48.798;9.798;2023-12-29T15:51:12;13.90;99.90
7216;DHT22;3649;48.798;9.798;2023-12-29T15:53:39;13.90;99.90
7216;DHT22;3649;48.798;9.798;2023-12-29T15:56:07;13.90;99.90
7216;DHT22;3649;48.798;9.798;2023-12-29T15:58:34;13.90;99.90
7216;DHT22;3649;48.798;9.798;2023-12-29T16:01:01;13.90;99.90
7216;DHT22;3649;48.798;9.798;2023-12-29T16:03:31;13.90;99.90
7216;DHT22;3649;48.798;9.798;2023-12-29T16:06:00;13.80;99.90
7216;DHT22;3649;48.798;9.798;2023-12-29T16:08:27;13.80;99.90
7216;DHT22;3649;48.798;9.798;2023-12-29T16:10:58;13.80;99.90
7216;DHT22;3649;48.798;9.798;2023-12-29T16:13:26;13.70;99.90
7216;DHT22;3649;48.798;9.798;2023-12-29T16:15:53;13.70;99.90
7216;DHT22;3649;48.798;9.798;2023-12-29T16:18:20;13.80;99.90
7216;DHT22;3649;48.798;9.798;2023-12-29T16:20:47;13.70;99.90